Featured Flight

MET2089 - Boston to Chicago

Embraer ERJ-170LR
N912AH
2 hrs 00 mins
752 nm
Scheduled - Daily

Bid/PiRep Status

Bid was submitted on January 5th, 2017 8:39 UTC.
PiRep # 74611: Approved by Sean Doyle on January 6th, 2017 8:52 UTC

Departure

Departing from
Boston (BOS)
Departure gate
Scheduled Departure
GMT 1430
Local 1030
METAR KBOS 140454Z 25017G25KT 10SM CLR M06/M13 A2958 RMK AO2 PK WND 24028/0443 SLP015 T10561128 400221056
TAF KBOS 132338Z 1400/1506 27017G30KT P6SM SKC FM140500 26013G24KT P6SM BKN100 FM140900 25009KT P6SM VCSH OVC060 FM141100 27009KT 3SM -SN OVC040 FM141500 29010KT P6SM VCSH BKN060 FM141700 29010G17KT P6SM SCT060

Arrival

Arriving at
Chicago (ORD)
Arrival gate
Scheduled Arrival
GMT 1630
Local 1130
METAR KORD 140551Z 34016G24KT 10SM -SN FEW020 BKN027 OVC031 M02/M07 A2978 RMK AO2 SLP093 P0000 60000 T10221067 11006 21022 400331056 51052 $
TAF KORD 140306Z 1403/1506 35015G25KT P6SM -SN SCT015 OVC020 TEMPO 1405/1407 02012G18KT 1 1/2SM -SN BKN015 FM140900 33011KT P6SM SCT025 SCT250 FM142000 29008KT P6SM SCT250 FM150000 24007KT P6SM BKN060

Route Map

Planning Resources

KBWI J518 J82 KORD
TERPZ2 BUFFR OXI4 BSV MOBLE HIMGO NOLEN KEWDE VULCN CASEN RIDGE PALIE JOGBO FIX 21
BUFFR IHD53 IHD AVERE LIVER DJB MAYZE ASHEN GSH HOBAR
BAL J518 DJB
TERPZ6.MCRAY J518 AVERE J152 TRAKK J30 FWA25 WATSN2.FWA
Route:
OFP Layout:
Units:
Detailed Navlog:
ETOPS Planning:
Plan Stepclimbs:
Runway Analysis:
Include NOTAMS:
FIR NOTAMS:
Flight Maps:

Return Flights

MET2080
Embraer ERJ-170LR
1100 GMT
MET2082
Embraer ERJ-170LR
1600 GMT
MET2084
Embraer ERJ-170LR
2100 GMT
MET2088
Embraer ERJ-170LR
1200 GMT
MET2090
Embraer ERJ-170LR
1700 GMT
MET2092
Embraer ERJ-170LR
2200 GMT
MET2096
Embraer ERJ-170LR
1300 GMT
MET2098
Embraer ERJ-170LR
1800 GMT
MET3000
Embraer ERJ-170LR
2300 GMT
MET3004
Embraer ERJ-170LR
1400 GMT
MET3006
Embraer ERJ-170LR
1900 GMT
MET3008
Embraer ERJ-170LR
0000 GMT
MET3010
Embraer ERJ-170LR
1500 GMT
MET3012
Embraer ERJ-170LR
2000 GMT
MET3014
Embraer ERJ-170LR
0100 GMT

Popularity

Hub Current Bids PiReps this month Total PiReps
KLAX 0 0 0
KBOS 0 0 2
KDFW 0 0 0